createdAt,value
2022-11-23T00:01:21.004Z,39.80
2022-11-23T00:03:51.989Z,39.38
2022-11-23T00:06:21.237Z,38.35
2022-11-23T00:08:54.336Z,34.42
2022-11-23T00:11:25.428Z,37.53
2022-11-23T00:13:53.576Z,34.70
2022-11-23T00:16:28.621Z,37.40
2022-11-23T00:19:01.120Z,38.47
2022-11-23T00:21:32.175Z,38.45
2022-11-23T00:24:02.858Z,37.77
2022-11-23T00:26:30.404Z,39.45
2022-11-23T00:28:57.800Z,36.80
2022-11-23T00:31:27.818Z,38.05
2022-11-23T00:33:56.986Z,36.42
2022-11-23T00:36:28.975Z,37.58
2022-11-23T00:38:57.684Z,36.85
2022-11-23T00:41:27.293Z,36.83
2022-11-23T00:43:54.844Z,37.97
2022-11-23T00:46:26.504Z,38.53
2022-11-23T00:48:56.827Z,39.70
2022-11-23T00:51:31.427Z,38.38
2022-11-23T00:54:02.074Z,37.90
2022-11-23T00:56:30.917Z,36.95
2022-11-23T00:58:59.970Z,35.58
2022-11-23T01:01:30.934Z,36.13
2022-11-23T01:04:01.997Z,37.17
2022-11-23T01:06:37.776Z,36.25
2022-11-23T01:09:18.975Z,37.53
2022-11-23T01:11:52.700Z,36.40
2022-11-23T01:14:26.778Z,35.80
2022-11-23T01:16:53.880Z,37.60
2022-11-23T01:19:24.171Z,37.28
2022-11-23T01:21:51.388Z,37.20
2022-11-23T01:24:23.039Z,37.95
2022-11-23T01:26:54.220Z,38.03
2022-11-23T01:29:23.091Z,36.67
2022-11-23T01:31:50.343Z,37.25
2022-11-23T01:34:18.056Z,39.17
2022-11-23T01:36:45.606Z,37.63
2022-11-23T01:39:18.510Z,36.33
2022-11-23T01:41:48.031Z,36.15
2022-11-23T01:44:39.634Z,38.08
2022-11-23T01:47:10.294Z,39.67
2022-11-23T01:49:50.586Z,39.15
2022-11-23T01:52:23.418Z,40.17
2022-11-23T01:54:57.220Z,40.10
2022-11-23T01:57:39.056Z,34.70
2022-11-23T02:00:08.301Z,37.42
2022-11-23T02:02:55.162Z,36.80
2022-11-23T02:05:28.492Z,38.72
2022-11-23T02:08:01.157Z,35.90
2022-11-23T02:10:31.770Z,38.70
2022-11-23T02:13:05.196Z,38.50
2022-11-23T02:15:36.632Z,35.03
2022-11-23T02:18:16.519Z,36.67
2022-11-23T02:20:47.462Z,34.65
2022-11-23T02:23:38.747Z,35.08
2022-11-23T02:26:18.937Z,35.45
2022-11-23T02:28:56.454Z,37.08
2022-11-23T02:31:26.514Z,36.55
2022-11-23T02:33:55.848Z,36.33
2022-11-23T02:36:42.283Z,38.67
2022-11-23T02:39:17.191Z,37.08
2022-11-23T02:41:50.827Z,37.20
2022-11-23T02:44:31.796Z,36.75
2022-11-23T02:47:01.799Z,35.83
2022-11-23T02:49:29.164Z,32.92
2022-11-23T02:51:56.809Z,35.10
2022-11-23T02:54:29.624Z,36.55
2022-11-23T02:57:00.438Z,36.45
2022-11-23T02:59:27.562Z,35.75
2022-11-23T03:01:54.960Z,34.20
2022-11-23T03:04:27.637Z,36.53
2022-11-23T03:07:00.280Z,35.80
2022-11-23T03:09:30.928Z,36.05
2022-11-23T03:12:00.833Z,37.13
2022-11-23T03:14:29.268Z,36.90
2022-11-23T03:17:01.876Z,36.38
2022-11-23T03:19:34.869Z,35.35
2022-11-23T03:22:03.222Z,34.83
2022-11-23T03:24:34.251Z,35.90
2022-11-23T03:27:08.198Z,34.17
2022-11-23T03:29:40.515Z,33.15
2022-11-23T03:32:15.648Z,34.58
2022-11-23T03:34:46.691Z,35.15
2022-11-23T03:37:15.665Z,33.45
2022-11-23T03:39:47.174Z,33.03
2022-11-23T03:42:33.485Z,34.47
2022-11-23T03:45:00.809Z,34.63
2022-11-23T03:47:30.899Z,34.47
2022-11-23T03:49:58.091Z,33.20
2022-11-23T03:52:25.575Z,32.15
2022-11-23T03:57:28.491Z,33.72
2022-11-23T03:59:55.922Z,33.90
2022-11-23T04:02:23.677Z,34.35
2022-11-23T04:05:03.889Z,35.65
2022-11-23T04:07:50.547Z,34.28
2022-11-23T04:10:23.236Z,33.85
2022-11-23T04:13:02.931Z,34.20
2022-11-23T04:15:30.563Z,34.47
2022-11-23T04:17:59.186Z,32.95
2022-11-23T04:20:26.547Z,38.55
2022-11-23T04:22:54.575Z,34.60
2022-11-23T04:25:21.763Z,34.78
2022-11-23T04:27:51.510Z,32.47
2022-11-23T04:30:19.453Z,32.30
2022-11-23T04:32:47.315Z,30.92
2022-11-23T04:35:15.333Z,31.80
2022-11-23T04:37:46.583Z,32.13
2022-11-23T04:40:14.411Z,31.35
2022-11-23T04:43:02.354Z,32.20
2022-11-23T04:45:40.527Z,32.35
2022-11-23T04:48:13.851Z,33.40
2022-11-23T04:50:45.712Z,33.00
2022-11-23T04:53:19.078Z,31.10
2022-11-23T04:55:47.736Z,32.75
2022-11-23T04:58:18.993Z,35.08
2022-11-23T05:00:50.981Z,36.28
2022-11-23T05:03:19.061Z,34.30
2022-11-23T05:05:46.262Z,36.45
2022-11-23T05:08:16.752Z,35.00
2022-11-23T05:10:53.348Z,34.53
2022-11-23T05:13:24.282Z,37.88
2022-11-23T05:15:51.537Z,37.63
2022-11-23T05:18:24.887Z,36.78
2022-11-23T05:20:54.213Z,38.33
2022-11-23T05:23:22.428Z,36.63
2022-11-23T05:25:52.109Z,34.42
2022-11-23T05:28:39.659Z,31.75
2022-11-23T05:31:11.538Z,33.13
2022-11-23T05:33:41.389Z,34.25
2022-11-23T05:36:13.667Z,34.63
2022-11-23T05:38:42.596Z,35.97
2022-11-23T05:41:15.582Z,36.85
2022-11-23T05:43:44.837Z,35.10
2022-11-23T05:46:17.562Z,36.20
2022-11-23T05:48:45.604Z,34.78
2022-11-23T05:51:13.681Z,35.65
2022-11-23T05:53:49.475Z,36.10
2022-11-23T05:56:37.274Z,37.72
2022-11-23T05:59:15.551Z,34.20
2022-11-23T06:01:46.859Z,35.37
2022-11-23T06:04:27.191Z,35.25
2022-11-23T06:07:01.020Z,30.75
2022-11-23T06:09:34.264Z,30.23
2022-11-23T06:12:06.817Z,32.15
2022-11-23T06:14:36.739Z,30.15
2022-11-23T06:17:04.131Z,28.50
2022-11-23T06:19:38.833Z,29.05
2022-11-23T06:22:06.443Z,30.33
2022-11-23T06:24:39.682Z,30.73
2022-11-23T06:27:25.509Z,32.20
2022-11-23T06:29:53.502Z,33.85
2022-11-23T06:32:32.931Z,33.17
2022-11-23T06:35:03.752Z,35.28
2022-11-23T06:37:34.633Z,32.40
2022-11-23T06:40:02.304Z,31.67
2022-11-23T06:42:45.134Z,30.40
2022-11-23T06:45:19.080Z,30.45
2022-11-23T06:47:48.528Z,30.45
2022-11-23T06:50:16.388Z,27.73
2022-11-23T06:52:55.393Z,30.13
2022-11-23T06:55:29.277Z,26.50
2022-11-23T06:57:58.977Z,26.77
2022-11-23T07:00:27.129Z,27.52
2022-11-23T07:02:56.987Z,25.25
2022-11-23T07:05:28.034Z,27.23
2022-11-23T07:07:55.712Z,27.92
2022-11-23T07:10:29.670Z,24.67
2022-11-23T07:13:08.989Z,22.13
2022-11-23T07:15:40.370Z,23.83
2022-11-23T07:18:09.716Z,22.60
2022-11-23T07:20:41.836Z,23.05
2022-11-23T07:23:11.408Z,24.05
2022-11-23T07:25:43.113Z,24.75
2022-11-23T07:28:13.549Z,25.23
2022-11-23T07:30:44.863Z,23.83
2022-11-23T07:33:13.530Z,25.73
2022-11-23T07:35:44.915Z,26.95
2022-11-23T07:38:12.518Z,21.73
2022-11-23T07:40:40.241Z,24.10
2022-11-23T07:43:14.896Z,24.70
2022-11-23T07:45:42.548Z,24.27
2022-11-23T07:50:51.209Z,26.92
2022-11-23T07:53:21.175Z,25.52
2022-11-23T07:55:48.935Z,24.45
2022-11-23T07:58:16.302Z,23.95
2022-11-23T08:00:46.480Z,23.80
2022-11-23T08:03:29.126Z,24.40
2022-11-23T08:05:59.463Z,23.65
2022-11-23T08:08:31.280Z,25.85
2022-11-23T08:10:58.722Z,24.80
2022-11-23T08:13:25.923Z,23.55
2022-11-23T08:15:55.942Z,22.27
2022-11-23T08:18:29.289Z,21.60
2022-11-23T08:21:02.271Z,21.70
2022-11-23T08:23:30.267Z,22.42
2022-11-23T08:26:06.564Z,20.80
2022-11-23T08:28:38.632Z,22.13
2022-11-23T08:33:39.718Z,23.98
2022-11-23T08:36:08.701Z,23.00
2022-11-23T08:38:38.766Z,24.35
2022-11-23T08:41:07.017Z,34.20
2022-11-23T08:43:36.745Z,33.72
2022-11-23T08:46:10.968Z,34.85
2022-11-23T08:48:38.647Z,36.42
2022-11-23T08:51:06.606Z,36.28
2022-11-23T08:53:34.439Z,32.17
2022-11-23T08:56:05.146Z,25.50
2022-11-23T08:58:32.663Z,25.13
2022-11-23T09:01:07.275Z,23.90
2022-11-23T09:03:36.882Z,25.13
2022-11-23T09:06:04.449Z,24.95
2022-11-23T09:08:32.294Z,25.42
2022-11-23T09:11:05.603Z,25.23
2022-11-23T09:13:34.843Z,24.77
2022-11-23T09:16:03.253Z,26.45
2022-11-23T09:18:30.936Z,27.65
2022-11-23T09:21:05.814Z,26.63
2022-11-23T09:26:02.196Z,26.65
2022-11-23T09:28:29.716Z,26.77
2022-11-23T09:31:00.186Z,25.95
2022-11-23T09:33:27.435Z,26.45
2022-11-23T09:36:01.582Z,26.52
2022-11-23T09:38:55.079Z,33.80
2022-11-23T09:41:58.243Z,31.85
2022-11-23T09:44:52.394Z,25.25
2022-11-23T09:47:42.782Z,24.90
2022-11-23T09:52:47.804Z,25.17
2022-11-23T09:55:37.825Z,24.13
2022-11-23T09:58:06.919Z,24.27
2022-11-23T10:00:41.610Z,24.23
2022-11-23T10:03:15.677Z,23.23
2022-11-23T10:06:02.685Z,24.67
2022-11-23T10:08:37.229Z,24.30
2022-11-23T10:11:13.505Z,22.13
2022-11-23T10:13:48.044Z,21.63
2022-11-23T10:16:26.222Z,22.85
2022-11-23T10:19:23.856Z,22.00
2022-11-23T10:22:12.673Z,20.50
2022-11-23T10:24:45.600Z,21.73
2022-11-23T10:27:16.814Z,21.75
2022-11-23T10:29:44.963Z,23.97
2022-11-23T10:32:42.134Z,23.30
2022-11-23T10:35:18.203Z,25.02
2022-11-23T10:37:47.812Z,24.67
2022-11-23T10:43:04.275Z,23.42
2022-11-23T10:45:34.919Z,23.95
2022-11-23T10:48:02.145Z,25.08
2022-11-23T10:50:37.398Z,25.85
2022-11-23T10:53:21.357Z,24.10
2022-11-23T10:55:55.109Z,20.65
2022-11-23T10:58:41.728Z,21.75
2022-11-23T11:01:30.423Z,21.08
2022-11-23T11:04:04.639Z,22.60
2022-11-23T11:06:36.063Z,24.85
2022-11-23T11:09:09.495Z,27.05
2022-11-23T11:11:47.332Z,28.98
2022-11-23T11:14:24.135Z,26.80
2022-11-23T11:16:58.394Z,27.63
2022-11-23T11:19:36.524Z,28.35
2022-11-23T11:22:33.728Z,30.38
2022-11-23T11:25:07.236Z,27.08
2022-11-23T11:27:34.776Z,27.33
2022-11-23T11:30:23.812Z,27.85
2022-11-23T11:32:59.921Z,28.33
2022-11-23T11:35:32.394Z,27.73
2022-11-23T11:38:16.333Z,30.58
2022-11-23T11:40:55.866Z,28.77
2022-11-23T11:43:42.073Z,28.40
2022-11-23T11:46:38.114Z,27.10
2022-11-23T11:49:20.443Z,29.83
2022-11-23T11:52:11.293Z,26.85
2022-11-23T11:55:07.955Z,31.55
2022-11-23T11:57:46.166Z,29.73
2022-11-23T12:00:20.046Z,29.52
2022-11-23T12:02:57.980Z,28.15
2022-11-23T12:05:51.041Z,26.35
2022-11-23T12:08:45.657Z,30.25
2022-11-23T12:11:15.343Z,31.83
2022-11-23T12:13:46.982Z,33.05
2022-11-23T12:16:25.534Z,33.67
2022-11-23T12:19:24.140Z,31.67
2022-11-23T12:22:02.959Z,28.02
2022-11-23T12:24:43.930Z,28.67
2022-11-23T12:27:48.040Z,29.52
2022-11-23T12:30:27.920Z,30.35
2022-11-23T12:33:36.024Z,28.98
2022-11-23T12:36:29.774Z,31.42
2022-11-23T12:39:24.377Z,29.33
2022-11-23T12:41:59.402Z,29.17
2022-11-23T12:44:49.662Z,28.30
2022-11-23T12:47:23.747Z,27.15
2022-11-23T12:49:58.514Z,28.63
2022-11-23T12:52:50.705Z,35.38
2022-11-23T12:55:32.757Z,28.23
2022-11-23T12:58:37.916Z,28.02
2022-11-23T13:04:03.568Z,27.70
2022-11-23T13:07:12.732Z,28.35
2022-11-23T13:10:02.133Z,30.45
2022-11-23T13:15:40.897Z,26.65
2022-11-23T13:18:37.337Z,29.52
2022-11-23T13:21:23.763Z,29.40
2022-11-23T13:23:53.687Z,28.45
2022-11-23T13:26:24.193Z,32.97
2022-11-23T13:28:53.720Z,31.23
2022-11-23T13:31:30.462Z,37.13
2022-11-23T13:34:51.225Z,37.22
2022-11-23T13:37:24.192Z,34.00
2022-11-23T13:40:03.601Z,34.78
2022-11-23T13:42:33.666Z,35.70
2022-11-23T13:45:30.379Z,37.65
2022-11-23T13:48:09.482Z,34.33
2022-11-23T13:50:49.196Z,39.08
2022-11-23T13:53:24.025Z,35.33
2022-11-23T13:55:54.097Z,36.33
2022-11-23T13:58:22.679Z,35.45
2022-11-23T14:00:59.597Z,35.30
2022-11-23T14:03:55.972Z,35.15
2022-11-23T14:06:38.645Z,49.53
2022-11-23T14:09:29.529Z,43.80
2022-11-23T14:12:04.275Z,52.28
2022-11-23T14:17:29.126Z,49.78
2022-11-23T14:20:35.060Z,49.53
2022-11-23T14:23:32.989Z,46.22
2022-11-23T14:26:12.795Z,48.63
2022-11-23T14:29:05.243Z,50.25
2022-11-23T14:31:53.349Z,48.38
2022-11-23T14:34:45.508Z,51.63
2022-11-23T14:37:23.393Z,50.22
2022-11-23T14:40:12.941Z,49.15
2022-11-23T14:42:47.829Z,50.38
2022-11-23T14:45:18.498Z,48.08
2022-11-23T14:47:50.441Z,52.45
2022-11-23T14:50:28.507Z,52.63
2022-11-23T14:53:00.111Z,56.83
2022-11-23T14:55:29.633Z,51.08
2022-11-23T14:58:07.021Z,50.17
2022-11-23T15:00:43.854Z,47.85
2022-11-23T15:06:14.336Z,56.75
2022-11-23T15:09:09.491Z,54.95
2022-11-23T15:11:38.322Z,53.97
2022-11-23T15:14:21.423Z,57.80
2022-11-23T15:16:50.960Z,59.38
2022-11-23T15:19:29.199Z,55.03
2022-11-23T15:21:57.565Z,61.65
2022-11-23T15:24:28.764Z,51.90
2022-11-23T15:27:10.772Z,56.45
2022-11-23T15:29:39.974Z,56.60
2022-11-23T15:32:33.935Z,54.28
2022-11-23T15:35:08.385Z,51.20
2022-11-23T15:37:45.858Z,53.17
2022-11-23T15:40:20.017Z,53.65
2022-11-23T15:42:53.008Z,63.88
2022-11-23T15:45:46.226Z,74.75
2022-11-23T15:48:17.925Z,70.05
2022-11-23T15:50:56.516Z,63.42
2022-11-23T15:53:34.422Z,63.13
2022-11-23T15:56:04.814Z,66.25
2022-11-23T15:58:33.865Z,59.83
2022-11-23T16:01:17.032Z,56.40
2022-11-23T16:04:02.211Z,54.50
2022-11-23T16:06:38.539Z,54.13
2022-11-23T16:09:52.210Z,50.70
2022-11-23T16:12:33.812Z,49.03
2022-11-23T16:15:41.544Z,49.25
2022-11-23T16:18:21.763Z,54.95
2022-11-23T16:20:54.042Z,50.05
2022-11-23T16:23:44.333Z,56.72
2022-11-23T16:26:15.090Z,59.28
2022-11-23T16:29:02.012Z,49.28
2022-11-23T16:31:40.506Z,51.75
2022-11-23T16:34:19.463Z,49.05
2022-11-23T16:36:46.938Z,53.25
2022-11-23T16:39:14.409Z,57.63
2022-11-23T16:41:44.317Z,54.40
2022-11-23T16:44:13.840Z,52.53
2022-11-23T16:46:47.383Z,53.47
2022-11-23T16:49:23.446Z,63.58
2022-11-23T16:51:57.448Z,58.88
2022-11-23T16:54:27.092Z,58.67
2022-11-23T16:57:01.407Z,55.35
2022-11-23T16:59:33.663Z,59.97
2022-11-23T17:02:03.479Z,56.05
2022-11-23T17:04:31.226Z,55.00
2022-11-23T17:06:59.024Z,55.45
2022-11-23T17:09:28.702Z,57.53
2022-11-23T17:11:56.729Z,60.78
2022-11-23T17:14:29.790Z,62.22
2022-11-23T17:17:00.399Z,59.55
2022-11-23T17:19:30.333Z,63.10
2022-11-23T17:21:58.193Z,60.13
2022-11-23T17:24:25.499Z,52.67
2022-11-23T17:26:56.233Z,54.50
2022-11-23T17:29:37.719Z,54.15
2022-11-23T17:32:11.733Z,56.60
2022-11-23T17:34:39.706Z,55.15
2022-11-23T17:37:19.972Z,58.80
2022-11-23T17:39:48.938Z,59.25
2022-11-23T17:42:17.310Z,55.00
2022-11-23T17:44:49.206Z,51.50
2022-11-23T17:47:30.951Z,51.42
2022-11-23T17:49:58.442Z,50.88
2022-11-23T17:52:28.360Z,54.85
2022-11-23T17:54:56.161Z,56.83
2022-11-23T17:57:26.901Z,58.83
2022-11-23T17:59:56.607Z,61.35
2022-11-23T18:02:31.442Z,56.30
2022-11-23T18:05:02.894Z,61.95
2022-11-23T18:07:32.571Z,52.80
2022-11-23T18:09:59.778Z,51.42
2022-11-23T18:12:32.157Z,49.10
2022-11-23T18:15:07.081Z,48.25
2022-11-23T18:17:35.755Z,49.22
2022-11-23T18:20:04.405Z,49.72
2022-11-23T18:22:32.081Z,53.25
2022-11-23T18:25:04.535Z,50.05
2022-11-23T18:27:35.098Z,54.90
2022-11-23T18:30:02.601Z,58.28
2022-11-23T18:32:30.138Z,57.00
2022-11-23T18:34:57.401Z,55.65
2022-11-23T18:37:29.397Z,54.58
2022-11-23T18:39:58.665Z,55.80
2022-11-23T18:42:30.919Z,61.97
2022-11-23T18:44:58.213Z,59.95
2022-11-23T18:47:28.336Z,61.08
2022-11-23T18:50:00.735Z,58.38
2022-11-23T18:52:35.840Z,63.35
2022-11-23T18:55:03.036Z,63.00
2022-11-23T18:57:30.785Z,60.72
2022-11-23T19:00:01.127Z,64.13
2022-11-23T19:02:29.342Z,65.03
2022-11-23T19:04:57.619Z,59.88
2022-11-23T19:07:27.600Z,59.60
2022-11-23T19:09:57.212Z,59.45
2022-11-23T19:12:25.535Z,58.30
2022-11-23T19:14:52.738Z,61.08
2022-11-23T19:17:23.116Z,70.05
2022-11-23T19:19:55.195Z,63.53
2022-11-23T19:22:24.797Z,59.85
2022-11-23T19:24:52.145Z,64.50
2022-11-23T19:27:29.124Z,63.90
2022-11-23T19:29:59.814Z,58.53
2022-11-23T19:32:30.814Z,50.20
2022-11-23T19:34:58.202Z,53.83
2022-11-23T19:37:28.277Z,49.83
2022-11-23T19:39:57.732Z,52.03
2022-11-23T19:42:28.093Z,51.45
2022-11-23T19:44:58.866Z,49.38
2022-11-23T19:47:31.485Z,50.90
2022-11-23T19:50:01.607Z,50.78
2022-11-23T19:53:03.706Z,47.13
2022-11-23T19:55:24.066Z,53.88
2022-11-23T19:57:54.515Z,54.97
2022-11-23T20:00:21.736Z,51.60
2022-11-23T20:02:51.954Z,51.83
2022-11-23T20:05:24.776Z,51.47
2022-11-23T20:07:52.645Z,45.97
2022-11-23T20:10:19.931Z,43.40
2022-11-23T20:12:47.346Z,49.00
2022-11-23T20:15:17.159Z,52.58
2022-11-23T20:17:47.135Z,46.90
2022-11-23T20:20:15.130Z,46.28
2022-11-23T20:22:45.731Z,42.83
2022-11-23T20:25:13.335Z,41.45
2022-11-23T20:27:47.045Z,41.05
2022-11-23T20:30:19.978Z,43.88
2022-11-23T20:32:51.965Z,42.38
2022-11-23T20:35:24.718Z,44.25
2022-11-23T20:37:57.304Z,40.72
2022-11-23T20:40:30.277Z,40.88
2022-11-23T20:43:00.713Z,38.83
2022-11-23T20:45:30.696Z,42.97
2022-11-23T20:48:01.164Z,42.28
2022-11-23T20:50:33.724Z,44.55
2022-11-23T20:53:06.182Z,43.55
2022-11-23T20:55:33.563Z,42.88
2022-11-23T20:58:06.027Z,40.20
2022-11-23T21:00:33.523Z,42.10
2022-11-23T21:03:01.250Z,45.28
2022-11-23T21:05:30.630Z,43.55
2022-11-23T21:08:01.387Z,44.85
2022-11-23T21:10:47.288Z,42.38
2022-11-23T21:13:48.490Z,46.88
2022-11-23T21:16:18.564Z,45.83
2022-11-23T21:18:48.588Z,44.72
2022-11-23T21:21:18.170Z,44.15
2022-11-23T21:23:49.513Z,46.40
2022-11-23T21:26:21.494Z,43.80
2022-11-23T21:28:49.138Z,42.25
2022-11-23T21:31:16.368Z,41.20
2022-11-23T21:33:44.305Z,45.85
2022-11-23T21:36:14.868Z,44.55
2022-11-23T21:38:42.491Z,44.72
2022-11-23T21:41:13.864Z,45.05
2022-11-23T21:46:21.525Z,44.08
2022-11-23T21:49:00.793Z,46.28
2022-11-23T21:51:30.032Z,44.08
2022-11-23T21:53:59.537Z,44.38
2022-11-23T21:56:29.545Z,44.50
2022-11-23T21:58:59.636Z,43.95
2022-11-23T22:04:10.367Z,41.95
2022-11-23T22:06:39.749Z,42.78
2022-11-23T22:09:11.652Z,44.22
2022-11-23T22:11:45.308Z,41.05
2022-11-23T22:14:18.419Z,42.40
2022-11-23T22:16:47.297Z,43.70
2022-11-23T22:19:18.399Z,42.17
2022-11-23T22:21:46.758Z,43.58
2022-11-23T22:24:18.854Z,45.10
2022-11-23T22:26:49.022Z,43.15
2022-11-23T22:29:16.618Z,43.30
2022-11-23T22:31:44.142Z,40.30
2022-11-23T22:34:16.774Z,40.65
2022-11-23T22:36:43.873Z,43.53
2022-11-23T22:39:11.697Z,40.05
2022-11-23T22:41:41.125Z,41.55
2022-11-23T22:44:11.427Z,42.33
2022-11-23T22:46:43.915Z,42.70
2022-11-23T22:49:11.393Z,42.33
2022-11-23T22:51:41.577Z,41.03
2022-11-23T22:54:09.610Z,43.90
2022-11-23T22:56:39.272Z,44.95
2022-11-23T22:59:09.742Z,46.10
2022-11-23T23:01:39.043Z,45.70
2022-11-23T23:04:13.714Z,42.50
2022-11-23T23:06:43.371Z,43.08
2022-11-23T23:09:11.356Z,43.25
2022-11-23T23:11:43.662Z,42.33
2022-11-23T23:14:11.497Z,39.42
2022-11-23T23:16:40.978Z,40.80
2022-11-23T23:19:08.424Z,39.33
2022-11-23T23:21:35.976Z,40.38
2022-11-23T23:24:06.715Z,41.28
2022-11-23T23:26:33.907Z,42.90
2022-11-23T23:29:06.230Z,44.67
2022-11-23T23:31:36.789Z,45.53
2022-11-23T23:34:07.018Z,49.95
2022-11-23T23:36:36.188Z,48.63
2022-11-23T23:39:04.842Z,48.35
2022-11-23T23:41:32.087Z,47.95
2022-11-23T23:44:02.082Z,44.00
2022-11-23T23:46:31.824Z,42.00
2022-11-23T23:49:00.747Z,42.35
2022-11-23T23:51:32.862Z,41.40
2022-11-23T23:54:00.320Z,42.15
2022-11-23T23:56:29.572Z,38.65
2022-11-23T23:59:00.257Z,37.90
